createdAt,value
2022-10-11T00:01:46.350Z,78.50
2022-10-11T00:04:18.294Z,78.60
2022-10-11T00:06:50.306Z,78.40
2022-10-11T00:09:22.210Z,78.40
2022-10-11T00:11:57.703Z,78.40
2022-10-11T00:14:29.649Z,79.40
2022-10-11T00:17:01.647Z,78.50
2022-10-11T00:19:34.223Z,78.70
2022-10-11T00:22:06.101Z,78.90
2022-10-11T00:24:38.026Z,78.90
2022-10-11T00:27:09.940Z,78.80
2022-10-11T00:29:41.872Z,78.80
2022-10-11T00:32:13.764Z,78.70
2022-10-11T00:34:45.715Z,78.70
2022-10-11T00:37:18.566Z,78.70
2022-10-11T00:39:50.533Z,78.80
2022-10-11T00:42:22.937Z,78.70
2022-10-11T00:45:26.761Z,78.80
2022-10-11T00:48:07.485Z,78.60
2022-10-11T00:50:39.659Z,78.50
2022-10-11T00:53:12.829Z,78.30
2022-10-11T00:55:53.110Z,78.20
2022-10-11T00:58:25.207Z,78.20
2022-10-11T01:00:57.705Z,78.10
2022-10-11T01:03:33.089Z,78.00
2022-10-11T01:06:05.663Z,78.00
2022-10-11T01:08:38.811Z,78.10
2022-10-11T01:11:17.308Z,78.00
2022-10-11T01:14:16.300Z,78.00
2022-10-11T01:17:19.033Z,78.00
2022-10-11T01:20:30.856Z,77.90
2022-10-11T01:23:49.931Z,77.90
2022-10-11T01:27:16.156Z,77.90
2022-10-11T01:30:27.122Z,77.80
2022-10-11T01:33:45.027Z,77.80
2022-10-11T01:36:33.701Z,77.90
2022-10-11T01:39:16.462Z,77.80
2022-10-11T01:41:53.643Z,77.70
2022-10-11T01:44:27.075Z,77.70
2022-10-11T01:46:58.929Z,77.80
2022-10-11T01:49:30.952Z,77.70
2022-10-11T01:52:07.128Z,77.70
2022-10-11T01:55:08.077Z,77.60
2022-10-11T01:57:44.651Z,77.60
2022-10-11T02:00:22.560Z,77.60
2022-10-11T02:03:36.627Z,77.60
2022-10-11T02:06:35.498Z,78.40
2022-10-11T02:09:26.271Z,77.50
2022-10-11T02:12:06.591Z,77.40
2022-10-11T02:14:49.432Z,77.40
2022-10-11T02:17:29.589Z,77.40
2022-10-11T02:20:08.612Z,77.50
2022-10-11T02:22:48.235Z,77.40
2022-10-11T02:25:30.641Z,77.40
2022-10-11T02:28:10.617Z,77.30
2022-10-11T02:30:46.877Z,77.50
2022-10-11T02:33:26.593Z,77.50
2022-10-11T02:36:09.644Z,77.60
2022-10-11T02:38:51.164Z,77.70
2022-10-11T02:41:34.243Z,78.50
2022-10-11T02:44:33.600Z,77.80
2022-10-11T02:47:07.648Z,77.70
2022-10-11T02:49:39.842Z,77.70
2022-10-11T02:52:11.780Z,77.70
2022-10-11T02:54:43.705Z,77.60
2022-10-11T02:57:15.757Z,77.60
2022-10-11T02:59:47.708Z,77.60
2022-10-11T03:02:19.587Z,77.70
2022-10-11T03:04:51.473Z,77.80
2022-10-11T03:07:23.514Z,77.90
2022-10-11T03:09:55.371Z,77.90
2022-10-11T03:12:27.299Z,77.80
2022-10-11T03:14:59.204Z,77.60
2022-10-11T03:17:36.711Z,77.60
2022-10-11T03:20:09.846Z,77.50
2022-10-11T03:22:41.773Z,77.40
2022-10-11T03:25:14.145Z,77.30
2022-10-11T03:27:46.127Z,77.30
2022-10-11T03:30:18.567Z,77.30
2022-10-11T03:32:50.505Z,77.40
2022-10-11T03:35:22.395Z,77.40
2022-10-11T03:37:54.346Z,77.40
2022-10-11T03:40:26.231Z,77.30
2022-10-11T03:42:58.216Z,77.30
2022-10-11T03:45:30.076Z,77.40
2022-10-11T03:48:02.427Z,77.40
2022-10-11T03:50:34.483Z,77.50
2022-10-11T03:53:08.001Z,77.40
2022-10-11T03:55:41.113Z,77.40
2022-10-11T03:58:13.057Z,77.50
2022-10-11T04:00:45.025Z,77.50
2022-10-11T04:03:16.934Z,77.40
2022-10-11T04:05:49.230Z,77.40
2022-10-11T04:08:21.137Z,77.40
2022-10-11T04:10:53.513Z,77.30
2022-10-11T04:13:25.492Z,77.30
2022-10-11T04:15:57.369Z,77.20
2022-10-11T04:18:29.270Z,77.20
2022-10-11T04:21:01.205Z,77.20
2022-10-11T04:23:33.732Z,77.20
2022-10-11T04:26:08.107Z,77.30
2022-10-11T04:28:40.314Z,77.30
2022-10-11T04:31:12.299Z,77.30
2022-10-11T04:33:44.340Z,77.20
2022-10-11T04:36:16.512Z,77.20
2022-10-11T04:38:49.162Z,77.30
2022-10-11T04:41:21.128Z,77.30
2022-10-11T04:43:53.214Z,77.40
2022-10-11T04:46:25.191Z,77.40
2022-10-11T04:48:57.182Z,77.40
2022-10-11T04:51:29.360Z,77.40
2022-10-11T04:54:01.330Z,77.30
2022-10-11T04:56:33.476Z,77.30
2022-10-11T04:59:05.474Z,77.40
2022-10-11T05:01:37.446Z,77.50
2022-10-11T05:04:09.453Z,77.50
2022-10-11T05:06:41.342Z,77.40
2022-10-11T05:09:13.328Z,77.40
2022-10-11T05:11:45.207Z,78.10
2022-10-11T05:14:17.205Z,77.20
2022-10-11T05:16:49.121Z,77.10
2022-10-11T05:19:21.085Z,77.00
2022-10-11T05:21:53.113Z,77.10
2022-10-11T05:24:25.041Z,77.20
2022-10-11T05:27:02.331Z,77.30
2022-10-11T05:29:35.177Z,77.40
2022-10-11T05:32:07.106Z,77.40
2022-10-11T05:34:38.991Z,78.10
2022-10-11T05:37:10.966Z,77.30
2022-10-11T05:39:42.875Z,77.30
2022-10-11T05:42:15.521Z,77.60
2022-10-11T05:44:47.440Z,77.90
2022-10-11T05:47:19.304Z,78.10
2022-10-11T05:49:51.321Z,78.00
2022-10-11T05:52:23.338Z,77.90
2022-10-11T05:54:55.252Z,77.70
2022-10-11T05:57:27.307Z,77.60
2022-10-11T05:59:59.181Z,77.60
2022-10-11T06:02:31.159Z,77.50
2022-10-11T06:05:03.313Z,77.50
2022-10-11T06:07:37.531Z,77.50
2022-10-11T06:10:10.011Z,77.50
2022-10-11T06:12:41.914Z,77.50
2022-10-11T06:15:14.573Z,77.50
2022-10-11T06:17:47.610Z,77.50
2022-10-11T06:20:19.918Z,77.50
2022-10-11T06:22:51.861Z,77.60
2022-10-11T06:25:23.713Z,77.60
2022-10-11T06:27:55.695Z,77.70
2022-10-11T06:30:27.703Z,77.70
2022-10-11T06:33:04.451Z,77.80
2022-10-11T06:35:36.832Z,77.90
2022-10-11T06:38:08.726Z,77.90
2022-10-11T06:40:40.592Z,78.00
2022-10-11T06:43:12.481Z,78.10
2022-10-11T06:45:44.611Z,78.20
2022-10-11T06:48:16.474Z,78.30
2022-10-11T06:50:59.678Z,78.40
2022-10-11T06:53:32.164Z,78.50
2022-10-11T06:56:07.920Z,78.80
2022-10-11T06:58:40.744Z,79.00
2022-10-11T07:01:20.638Z,79.20
2022-10-11T07:03:55.324Z,79.30
2022-10-11T07:06:30.313Z,79.30
2022-10-11T07:09:02.267Z,79.40
2022-10-11T07:11:35.052Z,79.70
2022-10-11T07:14:07.974Z,80.10
2022-10-11T07:16:40.012Z,80.40
2022-10-11T07:19:11.980Z,80.50
2022-10-11T07:21:43.899Z,80.70
2022-10-11T07:24:15.829Z,81.00
2022-10-11T07:26:47.771Z,81.40
2022-10-11T07:29:19.715Z,81.60
2022-10-11T07:31:51.600Z,81.90
2022-10-11T07:34:23.505Z,82.00
2022-10-11T07:36:55.450Z,82.40
2022-10-11T07:39:27.493Z,82.70
2022-10-11T07:41:59.739Z,83.00
2022-10-11T07:44:31.747Z,83.50
2022-10-11T07:47:07.723Z,83.60
2022-10-11T07:49:42.288Z,83.80
2022-10-11T07:52:14.283Z,84.00
2022-10-11T07:54:49.269Z,84.30
2022-10-11T07:57:21.290Z,84.50
2022-10-11T07:59:53.176Z,84.80
2022-10-11T08:02:25.096Z,84.90
2022-10-11T08:04:57.105Z,84.90
2022-10-11T08:07:29.940Z,85.00
2022-10-11T08:10:02.440Z,85.10
2022-10-11T08:12:34.622Z,85.10
2022-10-11T08:15:07.269Z,85.30
2022-10-11T08:17:39.214Z,85.40
2022-10-11T08:20:11.333Z,85.50
2022-10-11T08:22:43.317Z,85.60
2022-10-11T08:25:15.278Z,85.70
2022-10-11T08:27:47.215Z,85.40
2022-10-11T08:30:19.414Z,85.50
2022-10-11T08:32:51.298Z,85.60
2022-10-11T08:35:23.220Z,85.50
2022-10-11T08:37:55.182Z,85.40
2022-10-11T08:40:30.381Z,85.20
2022-10-11T08:43:12.081Z,84.90
2022-10-11T08:45:53.561Z,84.90
2022-10-11T08:48:45.774Z,84.70
2022-10-11T08:51:47.375Z,84.30
2022-10-11T08:54:51.730Z,84.40
2022-10-11T08:57:28.575Z,84.50
2022-10-11T09:00:07.449Z,84.50
2022-10-11T09:03:08.415Z,84.70
2022-10-11T09:06:13.436Z,84.30
2022-10-11T09:09:06.113Z,84.00
2022-10-11T09:12:14.136Z,84.00
2022-10-11T09:15:17.291Z,83.50
2022-10-11T09:18:28.037Z,83.40
2022-10-11T09:21:18.180Z,82.90
2022-10-11T09:24:17.215Z,82.70
2022-10-11T09:26:59.756Z,81.30
2022-10-11T09:29:49.862Z,81.50
2022-10-11T09:32:23.225Z,80.90
2022-10-11T09:35:15.066Z,80.30
2022-10-11T09:38:00.819Z,79.90
2022-10-11T09:40:47.798Z,79.40
2022-10-11T09:43:19.988Z,79.20
2022-10-11T09:45:51.919Z,79.20
2022-10-11T09:48:32.799Z,79.00
2022-10-11T09:51:17.109Z,79.00
2022-10-11T09:53:58.519Z,79.20
2022-10-11T09:56:33.782Z,78.80
2022-10-11T09:59:32.472Z,78.20
2022-10-11T10:02:13.527Z,78.00
2022-10-11T10:05:16.732Z,78.00
2022-10-11T10:08:01.590Z,77.70
2022-10-11T10:10:43.656Z,77.50
2022-10-11T10:13:29.666Z,77.10
2022-10-11T10:16:04.275Z,76.80
2022-10-11T10:18:50.365Z,77.00
2022-10-11T10:21:35.710Z,76.80
2022-10-11T10:24:38.177Z,76.00
2022-10-11T10:27:21.858Z,75.70
2022-10-11T10:30:08.133Z,75.80
2022-10-11T10:33:05.958Z,75.90
2022-10-11T10:36:06.210Z,75.60
2022-10-11T10:39:05.199Z,74.50
2022-10-11T10:41:37.274Z,74.00
2022-10-11T10:44:11.322Z,73.80
2022-10-11T10:47:20.699Z,73.20
2022-10-11T10:50:18.869Z,72.90
2022-10-11T10:53:16.313Z,72.90
2022-10-11T10:56:08.612Z,72.00
2022-10-11T10:58:56.042Z,71.30
2022-10-11T11:01:32.813Z,71.20
2022-10-11T11:04:33.427Z,70.80
2022-10-11T11:07:22.014Z,70.90
2022-10-11T11:10:18.353Z,71.60
2022-10-11T11:13:17.070Z,71.30
2022-10-11T11:16:07.294Z,70.90
2022-10-11T11:19:02.144Z,70.00
2022-10-11T11:21:47.907Z,70.20
2022-10-11T11:25:03.698Z,70.20
2022-10-11T11:28:25.937Z,70.10
2022-10-11T11:31:21.411Z,69.80
2022-10-11T11:33:58.977Z,69.50
2022-10-11T11:36:56.304Z,68.90
2022-10-11T11:39:37.886Z,68.70
2022-10-11T11:42:46.602Z,69.00
2022-10-11T11:45:45.175Z,69.00
2022-10-11T11:48:25.974Z,68.50
2022-10-11T11:51:20.333Z,68.40
2022-10-11T11:54:16.518Z,68.10
2022-10-11T11:57:01.700Z,68.10
2022-10-11T11:59:36.614Z,67.60
2022-10-11T12:02:45.095Z,67.40
2022-10-11T12:05:23.963Z,66.80
2022-10-11T12:08:08.365Z,66.90
2022-10-11T12:11:02.398Z,66.60
2022-10-11T12:13:40.736Z,66.70
2022-10-11T12:16:16.091Z,67.00
2022-10-11T12:18:59.972Z,67.00
2022-10-11T12:21:39.898Z,66.90
2022-10-11T12:24:20.988Z,66.80
2022-10-11T12:26:58.597Z,66.90
2022-10-11T12:29:49.839Z,66.60
2022-10-11T12:32:37.028Z,66.50
2022-10-11T12:35:30.841Z,66.20
2022-10-11T12:38:30.670Z,65.80
2022-10-11T12:41:13.310Z,65.60
2022-10-11T12:43:47.975Z,65.60
2022-10-11T12:46:29.077Z,65.20
2022-10-11T12:49:21.577Z,64.70
2022-10-11T12:52:31.247Z,65.10
2022-10-11T12:55:37.471Z,65.00
2022-10-11T12:58:26.161Z,64.80
2022-10-11T13:00:58.068Z,65.00
2022-10-11T13:04:00.405Z,65.30
2022-10-11T13:06:38.334Z,64.10
2022-10-11T13:09:10.166Z,63.80
2022-10-11T13:11:55.564Z,63.20
2022-10-11T13:14:30.912Z,62.40
2022-10-11T13:17:02.861Z,62.40
2022-10-11T13:19:38.026Z,62.30
2022-10-11T13:22:20.728Z,61.60
2022-10-11T13:24:57.908Z,61.40
2022-10-11T13:27:29.911Z,61.40
2022-10-11T13:30:08.671Z,61.50
2022-10-11T13:32:42.722Z,61.40
2022-10-11T13:35:28.754Z,61.30
2022-10-11T13:38:01.973Z,61.70
2022-10-11T13:40:35.490Z,62.20
2022-10-11T13:43:08.588Z,62.20
2022-10-11T13:45:41.424Z,62.20
2022-10-11T13:48:16.436Z,62.60
2022-10-11T13:51:17.870Z,62.90
2022-10-11T13:54:13.846Z,62.80
2022-10-11T13:56:51.359Z,62.40
2022-10-11T13:59:27.472Z,62.10
2022-10-11T14:02:01.863Z,62.00
2022-10-11T14:04:41.784Z,61.20
2022-10-11T14:07:37.467Z,60.60
2022-10-11T14:10:22.275Z,60.40
2022-10-11T14:13:06.519Z,60.20
2022-10-11T14:15:38.807Z,59.90
2022-10-11T14:18:48.761Z,59.70
2022-10-11T14:21:20.645Z,59.50
2022-10-11T14:23:56.572Z,59.80
2022-10-11T14:26:38.628Z,59.20
2022-10-11T14:29:33.041Z,58.60
2022-10-11T14:32:16.139Z,58.50
2022-10-11T14:34:49.486Z,58.80
2022-10-11T14:37:22.515Z,58.60
2022-10-11T14:39:54.553Z,58.30
2022-10-11T14:42:26.479Z,58.20
2022-10-11T14:44:58.373Z,58.00
2022-10-11T14:47:30.296Z,57.70
2022-10-11T14:50:34.289Z,57.70
2022-10-11T14:53:08.950Z,57.60
2022-10-11T14:55:42.620Z,57.90
2022-10-11T14:58:16.687Z,57.80
2022-10-11T15:00:48.621Z,57.20
2022-10-11T15:03:20.593Z,57.10
2022-10-11T15:05:52.590Z,56.80
2022-10-11T15:08:24.508Z,56.90
2022-10-11T15:10:56.611Z,56.80
2022-10-11T15:13:28.514Z,56.70
2022-10-11T15:16:00.477Z,56.50
2022-10-11T15:18:32.428Z,56.40
2022-10-11T15:21:04.548Z,56.20
2022-10-11T15:23:36.479Z,55.90
2022-10-11T15:26:14.253Z,55.80
2022-10-11T15:28:48.036Z,56.00
2022-10-11T15:31:20.863Z,56.00
2022-10-11T15:33:52.874Z,56.20
2022-10-11T15:36:25.157Z,56.20
2022-10-11T15:38:57.148Z,56.00
2022-10-11T15:41:29.055Z,56.00
2022-10-11T15:44:00.939Z,55.80
2022-10-11T15:46:32.941Z,55.80
2022-10-11T15:49:13.640Z,56.00
2022-10-11T15:51:46.224Z,56.40
2022-10-11T15:54:18.103Z,56.50
2022-10-11T15:56:50.028Z,56.80
2022-10-11T15:59:21.922Z,57.00
2022-10-11T16:01:53.891Z,57.10
2022-10-11T16:04:25.922Z,57.20
2022-10-11T16:06:57.830Z,57.30
2022-10-11T16:09:29.746Z,57.80
2022-10-11T16:12:01.677Z,58.00
2022-10-11T16:14:33.632Z,58.40
2022-10-11T16:17:05.649Z,58.70
2022-10-11T16:19:37.521Z,59.40
2022-10-11T16:22:09.401Z,59.80
2022-10-11T16:24:41.296Z,60.20
2022-10-11T16:27:16.558Z,60.60
2022-10-11T16:29:50.952Z,60.90
2022-10-11T16:32:24.315Z,61.40
2022-10-11T16:34:56.232Z,61.70
2022-10-11T16:37:28.125Z,62.20
2022-10-11T16:40:00.279Z,62.30
2022-10-11T16:42:32.630Z,62.60
2022-10-11T16:45:06.003Z,63.00
2022-10-11T16:47:38.058Z,63.30
2022-10-11T16:50:11.355Z,63.70
2022-10-11T16:52:43.303Z,63.80
2022-10-11T16:55:15.241Z,64.10
2022-10-11T16:57:47.222Z,64.10
2022-10-11T17:00:19.282Z,64.40
2022-10-11T17:02:51.399Z,64.50
2022-10-11T17:05:23.273Z,64.90
2022-10-11T17:07:55.177Z,65.00
2022-10-11T17:10:39.295Z,65.20
2022-10-11T17:13:11.949Z,66.20
2022-10-11T17:15:43.883Z,66.20
2022-10-11T17:18:17.116Z,66.20
2022-10-11T17:20:49.175Z,66.10
2022-10-11T17:23:21.075Z,66.10
2022-10-11T17:25:53.000Z,66.20
2022-10-11T17:28:24.992Z,66.40
2022-10-11T17:30:58.602Z,66.50
2022-10-11T17:33:31.822Z,66.70
2022-10-11T17:36:25.031Z,66.70
2022-10-11T17:38:57.740Z,67.00
2022-10-11T17:41:32.194Z,67.00
2022-10-11T17:44:05.276Z,67.30
2022-10-11T17:46:38.425Z,67.20
2022-10-11T17:49:12.613Z,67.30
2022-10-11T17:51:44.817Z,67.40
2022-10-11T17:54:16.798Z,67.60
2022-10-11T17:56:49.750Z,67.70
2022-10-11T17:59:22.214Z,67.70
2022-10-11T18:01:54.530Z,67.90
2022-10-11T18:04:30.159Z,68.00
2022-10-11T18:07:02.056Z,68.10
2022-10-11T18:09:34.942Z,68.30
2022-10-11T18:12:07.192Z,68.30
2022-10-11T18:14:39.065Z,68.40
2022-10-11T18:17:11.166Z,68.60
2022-10-11T18:19:43.080Z,68.50
2022-10-11T18:22:15.016Z,68.60
2022-10-11T18:24:47.960Z,68.60
2022-10-11T18:27:19.926Z,68.70
2022-10-11T18:29:51.802Z,69.60
2022-10-11T18:32:23.774Z,69.00
2022-10-11T18:34:57.592Z,69.00
2022-10-11T18:37:30.006Z,69.10
2022-10-11T18:40:01.947Z,69.30
2022-10-11T18:42:33.836Z,69.20
2022-10-11T18:45:06.765Z,69.30
2022-10-11T18:47:38.657Z,69.40
2022-10-11T18:50:10.680Z,70.20
2022-10-11T18:52:44.629Z,69.60
2022-10-11T18:55:16.953Z,69.60
2022-10-11T18:57:48.899Z,69.40
2022-10-11T19:00:39.702Z,69.50
2022-10-11T19:03:12.869Z,69.40
2022-10-11T19:05:44.825Z,69.40
2022-10-11T19:08:16.756Z,69.40
2022-10-11T19:10:48.606Z,69.30
2022-10-11T19:13:20.513Z,69.30
2022-10-11T19:15:52.443Z,69.40
2022-10-11T19:18:25.480Z,69.60
2022-10-11T19:21:05.440Z,69.70
2022-10-11T19:23:41.369Z,69.70
2022-10-11T19:26:26.465Z,69.80
2022-10-11T19:29:06.727Z,69.90
2022-10-11T19:31:46.964Z,70.00
2022-10-11T19:34:20.953Z,70.00
2022-10-11T19:36:57.295Z,70.10
2022-10-11T19:39:29.889Z,70.00
2022-10-11T19:42:01.857Z,70.10
2022-10-11T19:44:38.665Z,70.10
2022-10-11T19:47:11.709Z,70.10
2022-10-11T19:49:43.613Z,70.10
2022-10-11T19:52:15.466Z,70.10
2022-10-11T19:54:47.378Z,70.10
2022-10-11T19:57:19.263Z,70.20
2022-10-11T19:59:51.243Z,70.10
2022-10-11T20:02:23.082Z,70.10
2022-10-11T20:04:55.041Z,70.20
2022-10-11T20:07:27.050Z,70.20
2022-10-11T20:09:58.963Z,70.20
2022-10-11T20:12:31.301Z,70.20
2022-10-11T20:15:04.064Z,70.20
2022-10-11T20:17:48.279Z,70.10
2022-10-11T20:20:20.242Z,70.20
2022-10-11T20:22:53.539Z,70.10
2022-10-11T20:25:25.425Z,70.10
2022-10-11T20:27:57.326Z,70.10
2022-10-11T20:30:29.193Z,70.10
2022-10-11T20:33:01.094Z,70.10
2022-10-11T20:35:32.946Z,70.00
2022-10-11T20:38:04.800Z,70.10
2022-10-11T20:40:40.909Z,70.10
2022-10-11T20:43:14.230Z,70.10
2022-10-11T20:45:47.411Z,70.10
2022-10-11T20:48:19.277Z,70.10
2022-10-11T20:50:51.554Z,70.20
2022-10-11T20:53:24.332Z,70.20
2022-10-11T20:55:57.015Z,70.30
2022-10-11T20:58:28.897Z,70.20
2022-10-11T21:01:00.851Z,70.30
2022-10-11T21:03:32.764Z,70.40
2022-10-11T21:06:05.572Z,70.30
2022-10-11T21:08:38.826Z,70.40
2022-10-11T21:11:11.871Z,70.30
2022-10-11T21:13:43.899Z,70.30
2022-10-11T21:16:16.488Z,70.30
2022-10-11T21:18:54.301Z,70.20
2022-10-11T21:21:28.543Z,70.20
2022-10-11T21:24:05.483Z,70.40
2022-10-11T21:26:37.395Z,70.30
2022-10-11T21:29:09.291Z,70.40
2022-10-11T21:31:41.227Z,70.30
2022-10-11T21:34:13.090Z,70.40
2022-10-11T21:36:45.127Z,70.50
2022-10-11T21:39:17.098Z,70.70
2022-10-11T21:41:48.974Z,70.70
2022-10-11T21:44:20.850Z,70.60
2022-10-11T21:47:08.195Z,70.60
2022-10-11T21:49:40.137Z,70.60
2022-10-11T21:52:12.257Z,70.60
2022-10-11T21:54:44.144Z,70.60
2022-10-11T21:57:16.072Z,70.60
2022-10-11T21:59:47.960Z,70.60
2022-10-11T22:02:19.802Z,70.50
2022-10-11T22:04:51.671Z,70.50
2022-10-11T22:07:23.534Z,70.40
2022-10-11T22:09:55.433Z,70.40
2022-10-11T22:12:27.375Z,70.40
2022-10-11T22:14:59.223Z,70.30
2022-10-11T22:17:31.122Z,70.30
2022-10-11T22:20:03.182Z,70.30
2022-10-11T22:22:35.296Z,70.30
2022-10-11T22:25:08.268Z,70.40
2022-10-11T22:27:40.112Z,70.50
2022-10-11T22:30:12.250Z,70.60
2022-10-11T22:32:44.102Z,70.70
2022-10-11T22:35:16.041Z,70.70
2022-10-11T22:37:48.047Z,70.80
2022-10-11T22:40:20.456Z,70.80
2022-10-11T22:42:52.380Z,70.80
2022-10-11T22:45:24.443Z,70.60
2022-10-11T22:47:56.318Z,70.60
2022-10-11T22:50:28.276Z,70.60
2022-10-11T22:53:00.212Z,70.50
2022-10-11T22:55:32.268Z,70.50
2022-10-11T22:58:04.321Z,70.60
2022-10-11T23:00:37.029Z,70.60
2022-10-11T23:03:12.874Z,70.50
2022-10-11T23:05:57.058Z,70.60
2022-10-11T23:08:29.105Z,70.80
2022-10-11T23:11:07.842Z,70.70
2022-10-11T23:13:39.811Z,70.80
2022-10-11T23:16:13.349Z,70.70
2022-10-11T23:18:45.299Z,70.80
2022-10-11T23:21:17.233Z,71.50
2022-10-11T23:23:52.879Z,70.80
2022-10-11T23:26:24.829Z,71.00
2022-10-11T23:28:57.280Z,70.90
2022-10-11T23:31:29.213Z,71.20
2022-10-11T23:34:01.118Z,71.20
2022-10-11T23:36:32.999Z,71.20
2022-10-11T23:39:05.053Z,71.10
2022-10-11T23:41:36.950Z,71.10
2022-10-11T23:44:09.985Z,71.10
2022-10-11T23:46:41.913Z,71.10
2022-10-11T23:49:14.176Z,71.10
2022-10-11T23:51:46.062Z,71.20
2022-10-11T23:54:17.983Z,71.20
2022-10-11T23:56:49.894Z,71.40
2022-10-11T23:59:21.816Z,71.50
